createdAt,value
2023-05-02T00:03:09.426Z,13.88
2023-05-02T00:08:33.548Z,15.79
2023-05-02T00:13:57.753Z,15.17
2023-05-02T00:19:22.794Z,14.25
2023-05-02T00:24:47.651Z,14.75
2023-05-02T00:30:12.756Z,15.82
2023-05-02T00:35:37.163Z,14.78
2023-05-02T00:41:01.390Z,14.11
2023-05-02T00:46:25.921Z,14.74
2023-05-02T00:51:50.752Z,15.54
2023-05-02T00:57:16.151Z,14.62
2023-05-02T01:02:51.884Z,14.09
2023-05-02T01:08:29.316Z,13.80
2023-05-02T01:13:55.254Z,13.65
2023-05-02T01:19:29.891Z,14.95
2023-05-02T01:25:06.399Z,14.95
2023-05-02T01:30:34.460Z,14.19
2023-05-02T01:36:02.473Z,15.41
2023-05-02T01:41:28.370Z,15.72
2023-05-02T01:46:55.311Z,14.50
2023-05-02T01:52:23.331Z,14.61
2023-05-02T01:57:51.236Z,16.21
2023-05-02T02:03:18.501Z,17.01
2023-05-02T02:08:43.564Z,16.57
2023-05-02T02:14:12.848Z,14.86
2023-05-02T02:19:39.892Z,14.76
2023-05-02T02:25:11.880Z,16.30
2023-05-02T02:30:37.127Z,16.94
2023-05-02T02:36:11.857Z,16.55
2023-05-02T02:41:49.174Z,14.86
2023-05-02T02:47:27.852Z,13.75
2023-05-02T02:53:01.058Z,14.19
2023-05-02T02:58:52.418Z,15.81
2023-05-02T03:04:19.314Z,16.38
2023-05-02T03:09:48.353Z,16.47
2023-05-02T03:15:30.697Z,15.07
2023-05-02T03:20:55.958Z,14.59
2023-05-02T03:26:20.150Z,15.89
2023-05-02T03:31:46.454Z,16.44
2023-05-02T03:37:12.262Z,15.39
2023-05-02T03:42:40.437Z,13.89
2023-05-02T03:48:06.897Z,14.19
2023-05-02T03:53:32.325Z,15.70
2023-05-02T03:58:57.262Z,16.34
2023-05-02T04:04:21.796Z,15.92
2023-05-02T04:09:48.766Z,14.25
2023-05-02T04:15:14.657Z,14.22
2023-05-02T04:20:40.409Z,15.85
2023-05-02T04:26:04.846Z,16.47
2023-05-02T04:31:35.550Z,15.54
2023-05-02T04:37:01.715Z,14.06
2023-05-02T04:42:27.947Z,14.75
2023-05-02T04:48:12.960Z,15.90
2023-05-02T04:53:38.797Z,15.80
2023-05-02T04:59:03.374Z,14.44
2023-05-02T05:04:28.460Z,15.13
2023-05-02T05:09:57.007Z,16.21
2023-05-02T05:15:26.347Z,15.20
2023-05-02T05:20:55.148Z,14.49
2023-05-02T05:26:20.093Z,15.87
2023-05-02T05:31:45.908Z,16.01
2023-05-02T05:37:12.518Z,14.79
2023-05-02T05:42:38.013Z,15.73
2023-05-02T05:48:08.040Z,15.89
2023-05-02T05:53:38.580Z,14.81
2023-05-02T05:59:05.884Z,15.86
2023-05-02T06:04:30.706Z,15.90
2023-05-02T06:09:55.220Z,14.85
2023-05-02T06:15:19.503Z,15.62
2023-05-02T06:20:44.055Z,16.32
2023-05-02T06:26:08.794Z,15.28
2023-05-02T06:31:33.745Z,14.92
2023-05-02T06:36:57.849Z,16.47
2023-05-02T06:42:22.398Z,16.04
2023-05-02T06:47:46.953Z,15.20
2023-05-02T06:53:12.175Z,15.17
2023-05-02T06:58:36.900Z,16.75
2023-05-02T07:04:04.808Z,16.17
2023-05-02T07:09:29.268Z,15.48
2023-05-02T07:14:53.401Z,15.30
2023-05-02T07:20:17.912Z,16.98
2023-05-02T07:25:42.353Z,16.87
2023-05-02T07:31:06.717Z,16.11
2023-05-02T07:36:31.805Z,15.80
2023-05-02T07:41:56.306Z,15.76
2023-05-02T07:47:21.066Z,15.84
2023-05-02T07:52:45.383Z,15.89
2023-05-02T07:58:09.829Z,15.89
2023-05-02T08:03:34.553Z,15.97
2023-05-02T08:09:02.407Z,16.08
2023-05-02T08:14:26.835Z,16.24
2023-05-02T08:19:51.587Z,16.41
2023-05-02T08:25:15.709Z,16.54
2023-05-02T08:30:40.154Z,16.70
2023-05-02T08:36:15.487Z,16.89
2023-05-02T08:41:41.091Z,17.08
2023-05-02T08:47:07.271Z,17.28
2023-05-02T08:52:34.152Z,17.44
2023-05-02T08:57:59.039Z,17.60
2023-05-02T09:03:36.932Z,17.69
2023-05-02T09:09:05.064Z,17.66
2023-05-02T09:14:30.142Z,17.67
2023-05-02T09:20:01.742Z,17.73
2023-05-02T09:25:26.168Z,17.74
2023-05-02T09:30:51.106Z,17.79
2023-05-02T09:36:21.121Z,17.93
2023-05-02T09:41:48.532Z,18.07
2023-05-02T09:47:25.850Z,18.22
2023-05-02T09:53:11.581Z,18.23
2023-05-02T09:58:36.532Z,18.36
2023-05-02T10:04:01.160Z,18.42
2023-05-02T10:09:26.481Z,18.60
2023-05-02T10:14:58.613Z,18.86
2023-05-02T10:20:36.001Z,19.25
2023-05-02T10:26:00.649Z,19.52
2023-05-02T10:31:25.536Z,19.49
2023-05-02T10:36:50.364Z,19.48
2023-05-02T10:42:15.293Z,19.54
2023-05-02T10:47:41.162Z,19.48
2023-05-02T10:53:25.238Z,19.39
2023-05-02T10:58:51.458Z,19.28
2023-05-02T11:04:15.699Z,19.31
2023-05-02T11:09:40.553Z,19.29
2023-05-02T11:15:09.063Z,19.50
2023-05-02T11:20:36.046Z,19.73
2023-05-02T11:26:01.433Z,19.71
2023-05-02T11:31:28.489Z,19.69
2023-05-02T11:36:53.139Z,19.76
2023-05-02T11:42:30.666Z,19.76
2023-05-02T11:47:58.418Z,19.66
2023-05-02T11:53:30.034Z,19.48
2023-05-02T11:59:03.515Z,19.33
2023-05-02T12:04:28.526Z,19.13
2023-05-02T12:09:54.211Z,18.95
2023-05-02T12:15:19.129Z,18.97
2023-05-02T12:20:44.221Z,18.93
2023-05-02T12:26:22.767Z,18.78
2023-05-02T12:31:54.344Z,18.67
2023-05-02T12:37:24.646Z,18.64
2023-05-02T12:43:04.481Z,18.71
2023-05-02T12:48:28.896Z,18.98
2023-05-02T12:53:54.181Z,19.20
2023-05-02T12:59:32.914Z,19.38
2023-05-02T13:04:57.981Z,19.57
2023-05-02T13:10:23.459Z,19.76
2023-05-02T13:15:48.121Z,19.90
2023-05-02T13:21:12.956Z,19.92
2023-05-02T13:26:37.832Z,20.22
2023-05-02T13:32:02.464Z,20.41
2023-05-02T13:37:27.549Z,20.31
2023-05-02T13:42:51.556Z,20.12
2023-05-02T13:48:16.404Z,19.91
2023-05-02T13:53:41.120Z,19.65
2023-05-02T13:59:07.348Z,19.27
2023-05-02T14:04:34.324Z,18.97
2023-05-02T14:10:00.662Z,18.55
2023-05-02T14:15:27.258Z,18.22
2023-05-02T14:20:52.175Z,18.05
2023-05-02T14:26:16.986Z,18.07
2023-05-02T14:31:41.512Z,18.23
2023-05-02T14:37:06.638Z,18.36
2023-05-02T14:42:31.185Z,18.44
2023-05-02T14:47:56.407Z,18.51
2023-05-02T14:53:21.938Z,18.52
2023-05-02T14:58:46.977Z,18.43
2023-05-02T15:04:12.978Z,18.43
2023-05-02T15:09:38.351Z,18.41
2023-05-02T15:15:03.643Z,18.35
2023-05-02T15:20:27.947Z,18.27
2023-05-02T15:25:52.089Z,18.17
2023-05-02T15:31:16.323Z,18.05
2023-05-02T15:36:41.001Z,17.96
2023-05-02T15:42:06.547Z,17.88
2023-05-02T15:47:31.282Z,17.83
2023-05-02T15:52:56.192Z,17.86
2023-05-02T15:58:20.465Z,17.89
2023-05-02T16:03:45.719Z,17.84
2023-05-02T16:09:11.098Z,17.81
2023-05-02T16:14:36.007Z,17.77
2023-05-02T16:20:01.251Z,17.71
2023-05-02T16:25:25.512Z,17.74
2023-05-02T16:30:49.860Z,17.86
2023-05-02T16:36:15.149Z,17.83
2023-05-02T16:41:39.809Z,17.69
2023-05-02T16:47:04.604Z,17.53
2023-05-02T16:52:29.747Z,17.32
2023-05-02T16:57:54.228Z,17.06
2023-05-02T17:03:18.216Z,16.78
2023-05-02T17:08:42.567Z,16.44
2023-05-02T17:14:06.799Z,16.12
2023-05-02T17:19:31.890Z,15.86
2023-05-02T17:24:56.873Z,15.58
2023-05-02T17:30:21.756Z,15.33
2023-05-02T17:35:46.027Z,15.21
2023-05-02T17:41:10.268Z,15.04
2023-05-02T17:46:34.437Z,14.90
2023-05-02T17:51:59.088Z,14.77
2023-05-02T17:57:23.566Z,14.66
2023-05-02T18:02:48.203Z,14.62
2023-05-02T18:08:12.644Z,14.54
2023-05-02T18:13:37.823Z,14.40
2023-05-02T18:19:02.500Z,14.32
2023-05-02T18:24:39.575Z,14.22
2023-05-02T18:30:05.105Z,14.12
2023-05-02T18:35:29.422Z,14.00
2023-05-02T18:40:53.909Z,14.76
2023-05-02T18:46:18.206Z,16.96
2023-05-02T18:51:43.578Z,17.85
2023-05-02T18:57:08.312Z,17.11
2023-05-02T19:02:33.466Z,15.67
2023-05-02T19:07:58.168Z,14.81
2023-05-02T19:13:22.805Z,14.31
2023-05-02T19:18:47.298Z,13.95
2023-05-02T19:24:11.745Z,13.68
2023-05-02T19:29:36.229Z,13.50
2023-05-02T19:35:02.106Z,14.26
2023-05-02T19:40:29.170Z,16.42
2023-05-02T19:45:55.266Z,17.48
2023-05-02T19:51:25.963Z,17.29
2023-05-02T19:56:52.030Z,15.72
2023-05-02T20:02:22.397Z,14.70
2023-05-02T20:07:47.860Z,14.04
2023-05-02T20:13:12.398Z,13.60
2023-05-02T20:18:36.596Z,13.30
2023-05-02T20:24:00.737Z,13.05
2023-05-02T20:29:25.698Z,12.84
2023-05-02T20:34:50.080Z,12.71
2023-05-02T20:40:15.027Z,12.60
2023-05-02T20:45:40.270Z,12.43
2023-05-02T20:51:04.497Z,12.26
2023-05-02T20:56:28.274Z,12.13
2023-05-02T21:01:52.376Z,11.99
2023-05-02T21:07:17.150Z,11.80
2023-05-02T21:12:41.420Z,11.61
2023-05-02T21:18:06.388Z,11.38
2023-05-02T21:23:30.485Z,11.14
2023-05-02T21:28:55.029Z,10.97
2023-05-02T21:34:19.890Z,10.88
2023-05-02T21:39:44.338Z,10.78
2023-05-02T21:45:09.536Z,10.75
2023-05-02T21:50:34.303Z,10.66
2023-05-02T21:55:58.244Z,10.59
2023-05-02T22:07:39.663Z,10.55
2023-05-02T22:13:04.852Z,10.58
2023-05-02T22:18:29.317Z,10.55
2023-05-02T22:23:53.742Z,10.51
2023-05-02T22:29:17.849Z,10.56
2023-05-02T22:34:41.664Z,10.60
2023-05-02T22:40:08.754Z,10.64
2023-05-02T22:45:34.178Z,10.56
2023-05-02T22:50:58.655Z,10.32
2023-05-02T22:56:22.782Z,10.11
2023-05-02T23:01:46.893Z,10.71
2023-05-02T23:07:11.372Z,13.02
2023-05-02T23:12:35.780Z,14.29
2023-05-02T23:18:00.691Z,14.88
2023-05-02T23:23:24.746Z,14.48
2023-05-02T23:28:48.845Z,12.62
2023-05-02T23:34:12.908Z,11.47
2023-05-02T23:39:37.121Z,10.73
2023-05-02T23:45:01.561Z,10.16
2023-05-02T23:50:26.044Z,9.71
2023-05-02T23:55:50.627Z,9.43
